createdAt,value
2019-02-05T00:01:09.932Z,3.75
2019-02-05T00:03:36.979Z,3.78
2019-02-05T00:06:05.041Z,3.84
2019-02-05T00:08:32.457Z,3.92
2019-02-05T00:10:59.599Z,3.67
2019-02-05T00:13:26.660Z,3.75
2019-02-05T00:15:53.753Z,3.58
2019-02-05T00:18:20.788Z,3.72
2019-02-05T00:20:47.841Z,3.74
2019-02-05T00:23:15.320Z,3.61
2019-02-05T00:25:42.377Z,3.82
2019-02-05T00:28:09.932Z,3.76
2019-02-05T00:30:37.587Z,3.69
2019-02-05T00:33:04.946Z,3.57
2019-02-05T00:35:32.327Z,3.65
2019-02-05T00:37:59.674Z,3.59
2019-02-05T00:40:27.212Z,3.64
2019-02-05T00:42:54.585Z,3.61
2019-02-05T00:45:21.938Z,3.63
2019-02-05T00:47:49.793Z,3.40
2019-02-05T00:50:17.242Z,3.57
2019-02-05T00:52:44.567Z,3.67
2019-02-05T00:55:12.154Z,3.64
2019-02-05T00:57:39.513Z,3.68
2019-02-05T01:00:16.078Z,3.65
2019-02-05T01:02:43.742Z,3.65
2019-02-05T01:05:11.404Z,3.74
2019-02-05T01:07:38.802Z,3.87
2019-02-05T01:10:06.418Z,3.94
2019-02-05T01:12:34.183Z,3.74
2019-02-05T01:15:02.172Z,3.91
2019-02-05T01:17:30.033Z,3.70
2019-02-05T01:19:57.073Z,3.79
2019-02-05T01:22:24.262Z,3.76
2019-02-05T01:24:51.309Z,3.79
2019-02-05T01:27:18.422Z,3.87
2019-02-05T01:29:45.479Z,3.85
2019-02-05T01:32:12.910Z,3.84
2019-02-05T01:34:40.609Z,3.77
2019-02-05T01:37:07.944Z,3.75
2019-02-05T01:39:36.207Z,3.80
2019-02-05T01:42:04.688Z,3.81
2019-02-05T01:44:32.551Z,3.73
2019-02-05T01:47:02.001Z,3.84
2019-02-05T01:49:29.716Z,3.70
2019-02-05T01:51:57.073Z,3.90
2019-02-05T01:54:24.432Z,3.99
2019-02-05T01:56:51.460Z,3.79
2019-02-05T01:59:18.510Z,3.84
2019-02-05T02:01:46.284Z,3.83
2019-02-05T02:04:13.353Z,3.80
2019-02-05T02:06:40.685Z,3.72
2019-02-05T02:09:09.475Z,3.95
2019-02-05T02:11:37.069Z,3.96
2019-02-05T02:14:04.692Z,3.74
2019-02-05T02:16:31.808Z,3.80
2019-02-05T02:18:59.884Z,3.93
2019-02-05T02:21:28.723Z,4.05
2019-02-05T02:23:56.061Z,3.96
2019-02-05T02:26:24.027Z,4.10
2019-02-05T02:28:51.490Z,4.04
2019-02-05T02:31:19.274Z,3.90
2019-02-05T02:33:46.318Z,3.86
2019-02-05T02:36:14.062Z,4.03
2019-02-05T02:38:41.114Z,4.04
2019-02-05T02:41:08.227Z,4.07
2019-02-05T02:43:36.250Z,4.21
2019-02-05T02:46:03.869Z,4.11
2019-02-05T02:48:31.145Z,4.24
2019-02-05T02:50:58.192Z,4.10
2019-02-05T02:53:25.849Z,4.31
2019-02-05T02:55:53.612Z,4.16
2019-02-05T02:58:20.638Z,4.24
2019-02-05T03:00:48.081Z,4.17
2019-02-05T03:03:15.443Z,4.24
2019-02-05T03:05:44.688Z,4.27
2019-02-05T03:08:12.126Z,4.55
2019-02-05T03:10:39.333Z,4.44
2019-02-05T03:13:13.251Z,4.52
2019-02-05T03:15:41.443Z,4.52
2019-02-05T03:18:09.225Z,4.48
2019-02-05T03:20:37.785Z,4.32
2019-02-05T03:23:05.971Z,4.30
2019-02-05T03:25:33.343Z,4.41
2019-02-05T03:28:02.234Z,4.49
2019-02-05T03:30:30.834Z,4.32
2019-02-05T03:32:57.972Z,4.30
2019-02-05T03:35:25.012Z,4.21
2019-02-05T03:37:52.597Z,4.26
2019-02-05T03:40:58.306Z,4.28
2019-02-05T03:43:27.316Z,4.40
2019-02-05T03:45:55.481Z,4.45
2019-02-05T03:48:24.476Z,4.33
2019-02-05T03:50:56.644Z,4.46
2019-02-05T03:53:24.713Z,4.39
2019-02-05T03:56:08.560Z,4.38
2019-02-05T03:59:26.805Z,4.44
2019-02-05T04:02:36.244Z,4.57
2019-02-05T04:05:40.062Z,4.45
2019-02-05T04:08:37.725Z,4.48
2019-02-05T04:11:51.437Z,4.58
2019-02-05T04:15:12.629Z,4.52
2019-02-05T04:17:59.584Z,4.58
2019-02-05T04:21:13.860Z,4.63
2019-02-05T04:24:08.010Z,4.62
2019-02-05T04:26:58.449Z,4.61
2019-02-05T04:29:52.758Z,4.53
2019-02-05T04:32:37.059Z,4.58
2019-02-05T04:35:51.285Z,4.57
2019-02-05T04:39:11.807Z,4.68
2019-02-05T04:42:20.336Z,4.57
2019-02-05T04:45:33.767Z,4.56
2019-02-05T04:48:36.432Z,4.59
2019-02-05T04:51:41.794Z,4.60
2019-02-05T04:54:26.762Z,4.53
2019-02-05T04:57:20.006Z,4.58
2019-02-05T05:00:19.638Z,4.53
2019-02-05T05:03:33.781Z,4.66
2019-02-05T05:06:24.694Z,4.61
2019-02-05T05:09:18.892Z,4.53
2019-02-05T05:11:46.653Z,4.52
2019-02-05T05:14:15.542Z,4.46
2019-02-05T05:16:43.091Z,4.55
2019-02-05T05:19:10.162Z,4.72
2019-02-05T05:21:38.022Z,4.55
2019-02-05T05:24:05.477Z,4.69
2019-02-05T05:26:32.627Z,4.57
2019-02-05T05:28:59.704Z,4.39
2019-02-05T05:31:28.256Z,4.60
2019-02-05T05:33:56.217Z,4.62
2019-02-05T05:36:23.379Z,4.35
2019-02-05T05:38:52.926Z,4.53
2019-02-05T05:41:21.451Z,4.47
2019-02-05T05:43:48.802Z,4.45
2019-02-05T05:46:15.858Z,4.54
2019-02-05T05:48:43.628Z,4.49
2019-02-05T05:51:12.401Z,4.42
2019-02-05T05:53:40.063Z,4.49
2019-02-05T05:56:07.130Z,4.40
2019-02-05T05:58:34.610Z,4.52
2019-02-05T06:01:02.046Z,4.53
2019-02-05T06:03:29.449Z,4.56
2019-02-05T06:05:56.489Z,4.71
2019-02-05T06:08:26.073Z,4.45
2019-02-05T06:10:53.391Z,4.35
2019-02-05T06:13:20.682Z,4.63
2019-02-05T06:15:49.528Z,4.60
2019-02-05T06:18:17.798Z,4.71
2019-02-05T06:20:45.768Z,4.52
2019-02-05T06:23:13.536Z,4.65
2019-02-05T06:25:40.898Z,4.70
2019-02-05T06:28:08.080Z,4.69
2019-02-05T06:30:35.395Z,4.72
2019-02-05T06:33:02.745Z,4.58
2019-02-05T06:35:31.649Z,4.68
2019-02-05T06:37:58.989Z,4.70
2019-02-05T06:40:27.782Z,4.73
2019-02-05T06:42:55.189Z,4.78
2019-02-05T06:45:23.923Z,4.64
2019-02-05T06:47:52.404Z,4.71
2019-02-05T06:50:19.757Z,4.88
2019-02-05T06:52:47.168Z,4.85
2019-02-05T06:55:17.230Z,4.71
2019-02-05T06:57:46.024Z,4.71
2019-02-05T07:00:19.654Z,4.70
2019-02-05T07:02:48.207Z,4.74
2019-02-05T07:05:15.345Z,4.68
2019-02-05T07:07:43.409Z,4.57
2019-02-05T07:10:13.186Z,4.77
2019-02-05T07:12:40.221Z,4.79
2019-02-05T07:15:08.150Z,4.73
2019-02-05T07:17:36.322Z,4.92
2019-02-05T07:20:04.252Z,4.82
2019-02-05T07:22:31.645Z,4.99
2019-02-05T07:24:58.886Z,5.01
2019-02-05T07:27:25.894Z,4.89
2019-02-05T07:29:53.315Z,4.80
2019-02-05T07:32:20.371Z,4.91
2019-02-05T07:34:47.697Z,4.82
2019-02-05T07:37:14.718Z,4.73
2019-02-05T07:39:43.127Z,4.92
2019-02-05T07:42:10.156Z,4.92
2019-02-05T07:44:40.151Z,4.89
2019-02-05T07:47:07.393Z,4.97
2019-02-05T07:49:34.835Z,4.89
2019-02-05T07:52:02.467Z,4.75
2019-02-05T07:54:30.426Z,4.94
2019-02-05T07:56:57.695Z,4.99
2019-02-05T07:59:24.717Z,4.80
2019-02-05T08:01:51.878Z,4.91
2019-02-05T08:04:19.543Z,4.96
2019-02-05T08:06:47.407Z,5.04
2019-02-05T08:09:14.519Z,5.07
2019-02-05T08:11:41.932Z,5.15
2019-02-05T08:14:09.584Z,5.17
2019-02-05T08:16:36.723Z,5.00
2019-02-05T08:19:04.135Z,5.10
2019-02-05T08:21:31.648Z,5.34
2019-02-05T08:23:58.677Z,5.08
2019-02-05T08:26:26.446Z,5.16
2019-02-05T08:28:53.797Z,5.25
2019-02-05T08:31:21.081Z,5.26
2019-02-05T08:33:48.316Z,5.50
2019-02-05T08:36:15.359Z,5.24
2019-02-05T08:38:42.749Z,5.34
2019-02-05T08:41:09.819Z,5.21
2019-02-05T08:43:37.227Z,5.29
2019-02-05T08:46:04.993Z,5.26
2019-02-05T08:48:32.132Z,5.40
2019-02-05T08:50:59.214Z,5.59
2019-02-05T08:53:27.271Z,5.50
2019-02-05T08:55:54.321Z,5.54
2019-02-05T08:58:30.536Z,5.47
2019-02-05T09:00:50.450Z,5.60
2019-02-05T09:03:18.671Z,5.53
2019-02-05T09:05:45.721Z,5.31
2019-02-05T09:08:13.672Z,5.44
2019-02-05T09:10:41.765Z,5.67
2019-02-05T09:13:09.454Z,5.79
2019-02-05T09:15:36.916Z,5.81
2019-02-05T09:18:05.601Z,6.05
2019-02-05T09:20:34.084Z,5.87
2019-02-05T09:23:01.435Z,5.79
2019-02-05T09:25:29.195Z,5.84
2019-02-05T09:27:56.260Z,5.79
2019-02-05T09:30:25.625Z,5.64
2019-02-05T09:32:54.612Z,5.42
2019-02-05T09:35:21.671Z,5.57
2019-02-05T09:37:51.086Z,5.46
2019-02-05T09:40:24.069Z,5.63
2019-02-05T09:42:51.128Z,5.99
2019-02-05T09:45:18.690Z,6.07
2019-02-05T09:47:46.138Z,6.04
2019-02-05T09:50:13.801Z,5.84
2019-02-05T09:52:40.862Z,5.70
2019-02-05T09:55:10.632Z,5.97
2019-02-05T09:57:38.322Z,5.60
2019-02-05T10:00:11.037Z,6.09
2019-02-05T10:02:38.764Z,6.01
2019-02-05T10:05:07.655Z,6.03
2019-02-05T10:07:35.314Z,6.11
2019-02-05T10:10:03.089Z,5.93
2019-02-05T10:12:31.152Z,5.91
2019-02-05T10:14:59.631Z,6.19
2019-02-05T10:17:27.001Z,6.06
2019-02-05T10:19:54.019Z,6.11
2019-02-05T10:22:21.388Z,5.95
2019-02-05T10:24:49.918Z,6.14
2019-02-05T10:27:17.942Z,6.26
2019-02-05T10:29:56.537Z,6.35
2019-02-05T10:32:15.555Z,6.34
2019-02-05T10:34:43.186Z,6.48
2019-02-05T10:37:10.540Z,6.42
2019-02-05T10:39:37.887Z,6.55
2019-02-05T10:42:05.559Z,6.42
2019-02-05T10:44:33.508Z,6.36
2019-02-05T10:47:00.920Z,6.69
2019-02-05T10:49:28.225Z,6.50
2019-02-05T10:51:55.691Z,6.61
2019-02-05T10:54:23.350Z,6.64
2019-02-05T10:56:50.847Z,6.71
2019-02-05T10:59:18.273Z,6.54
2019-02-05T11:01:45.621Z,6.39
2019-02-05T11:04:13.064Z,6.53
2019-02-05T11:06:40.203Z,6.60
2019-02-05T11:09:09.621Z,6.65
2019-02-05T11:11:38.030Z,6.53
2019-02-05T11:14:05.554Z,6.54
2019-02-05T11:16:32.631Z,6.39
2019-02-05T11:18:59.963Z,6.13
2019-02-05T11:21:27.341Z,6.33
2019-02-05T11:23:55.288Z,6.05
2019-02-05T11:26:22.307Z,6.28
2019-02-05T11:28:49.342Z,6.13
2019-02-05T11:31:16.774Z,6.41
2019-02-05T11:33:43.811Z,6.20
2019-02-05T11:36:11.155Z,6.13
2019-02-05T11:38:38.211Z,6.45
2019-02-05T11:41:05.593Z,6.39
2019-02-05T11:43:32.910Z,6.59
2019-02-05T11:46:00.771Z,6.62
2019-02-05T11:48:27.859Z,6.61
2019-02-05T11:50:55.260Z,6.47
2019-02-05T11:53:22.376Z,6.61
2019-02-05T11:55:49.766Z,6.30
2019-02-05T11:58:18.452Z,6.28
2019-02-05T12:01:03.315Z,6.58
2019-02-05T12:03:30.367Z,6.75
2019-02-05T12:05:57.386Z,6.59
2019-02-05T12:08:24.425Z,6.81
2019-02-05T12:10:51.462Z,6.96
2019-02-05T12:13:19.541Z,6.39
2019-02-05T12:15:47.898Z,6.52
2019-02-05T12:18:20.944Z,6.51
2019-02-05T12:20:49.009Z,6.55
2019-02-05T12:23:16.075Z,6.55
2019-02-05T12:25:44.741Z,6.16
2019-02-05T12:28:12.404Z,6.41
2019-02-05T12:30:45.028Z,6.42
2019-02-05T12:33:09.353Z,6.40
2019-02-05T12:35:37.231Z,6.40
2019-02-05T12:38:06.530Z,6.54
2019-02-05T12:40:34.051Z,6.53
2019-02-05T12:43:01.092Z,6.41
2019-02-05T12:45:29.310Z,6.52
2019-02-05T12:47:56.711Z,6.62
2019-02-05T12:50:26.569Z,6.40
2019-02-05T12:52:55.466Z,6.76
2019-02-05T12:55:23.830Z,6.56
2019-02-05T12:57:50.879Z,6.70
2019-02-05T13:00:24.398Z,6.51
2019-02-05T13:02:54.422Z,6.78
2019-02-05T13:05:20.664Z,6.67
2019-02-05T13:07:47.755Z,6.53
2019-02-05T13:10:17.355Z,6.51
2019-02-05T13:12:44.380Z,6.27
2019-02-05T13:15:11.551Z,6.70
2019-02-05T13:17:42.926Z,6.72
2019-02-05T13:20:14.037Z,6.57
2019-02-05T13:22:41.460Z,6.75
2019-02-05T13:25:12.959Z,6.66
2019-02-05T13:27:40.017Z,6.51
2019-02-05T13:30:08.282Z,6.69
2019-02-05T13:32:35.302Z,6.76
2019-02-05T13:35:02.671Z,6.92
2019-02-05T13:37:31.206Z,6.73
2019-02-05T13:39:58.247Z,6.91
2019-02-05T13:42:25.906Z,6.76
2019-02-05T13:44:52.942Z,6.76
2019-02-05T13:47:21.012Z,7.15
2019-02-05T13:49:48.475Z,7.16
2019-02-05T13:52:16.488Z,6.93
2019-02-05T13:54:43.517Z,7.11
2019-02-05T13:57:11.062Z,7.03
2019-02-05T13:59:39.580Z,6.68
2019-02-05T14:02:07.202Z,6.65
2019-02-05T14:04:34.255Z,6.92
2019-02-05T14:07:01.279Z,6.99
2019-02-05T14:09:29.670Z,6.82
2019-02-05T14:11:57.069Z,7.17
2019-02-05T14:14:25.728Z,6.93
2019-02-05T14:16:53.387Z,6.87
2019-02-05T14:19:21.036Z,7.19
2019-02-05T14:21:48.382Z,6.80
2019-02-05T14:24:15.856Z,6.57
2019-02-05T14:26:43.554Z,6.76
2019-02-05T14:29:12.290Z,6.68
2019-02-05T14:31:39.654Z,6.32
2019-02-05T14:34:06.706Z,6.61
2019-02-05T14:36:34.358Z,6.70
2019-02-05T14:39:01.493Z,6.55
2019-02-05T14:41:30.703Z,6.73
2019-02-05T14:43:58.090Z,6.50
2019-02-05T14:46:25.369Z,6.48
2019-02-05T14:48:52.445Z,6.35
2019-02-05T14:51:19.463Z,6.64
2019-02-05T14:53:46.863Z,6.60
2019-02-05T14:56:13.903Z,6.42
2019-02-05T14:58:41.170Z,6.56
2019-02-05T15:01:08.515Z,6.58
2019-02-05T15:03:35.595Z,6.41
2019-02-05T15:06:03.020Z,6.52
2019-02-05T15:08:30.802Z,6.81
2019-02-05T15:10:59.793Z,6.48
2019-02-05T15:13:26.815Z,6.34
2019-02-05T15:15:53.846Z,6.46
2019-02-05T15:18:23.229Z,6.27
2019-02-05T15:20:50.483Z,6.21
2019-02-05T15:23:17.503Z,6.19
2019-02-05T15:25:44.825Z,6.32
2019-02-05T15:28:12.586Z,6.13
2019-02-05T15:30:42.129Z,6.36
2019-02-05T15:33:34.942Z,6.18
2019-02-05T15:36:08.031Z,6.27
2019-02-05T15:38:35.386Z,6.28
2019-02-05T15:41:03.990Z,6.17
2019-02-05T15:43:31.321Z,6.29
2019-02-05T15:45:58.359Z,6.48
2019-02-05T15:48:25.567Z,6.23
2019-02-05T15:50:53.028Z,6.33
2019-02-05T15:53:20.463Z,6.14
2019-02-05T15:55:47.798Z,6.13
2019-02-05T15:58:14.850Z,6.10
2019-02-05T16:00:42.317Z,5.96
2019-02-05T16:03:09.346Z,5.70
2019-02-05T16:05:36.440Z,6.11
2019-02-05T16:08:03.935Z,6.02
2019-02-05T16:10:31.055Z,5.87
2019-02-05T16:12:58.670Z,5.99
2019-02-05T16:15:26.379Z,6.02
2019-02-05T16:17:55.550Z,5.72
2019-02-05T16:20:22.867Z,5.79
2019-02-05T16:22:50.515Z,5.74
2019-02-05T16:25:19.219Z,6.01
2019-02-05T16:27:47.196Z,5.85
2019-02-05T16:30:16.796Z,6.13
2019-02-05T16:32:44.150Z,5.84
2019-02-05T16:35:12.321Z,5.86
2019-02-05T16:37:39.688Z,5.92
2019-02-05T16:40:11.074Z,5.91
2019-02-05T16:42:38.484Z,6.03
2019-02-05T16:45:07.847Z,5.96
2019-02-05T16:47:35.006Z,6.06
2019-02-05T16:50:02.164Z,5.87
2019-02-05T16:52:29.749Z,5.81
2019-02-05T16:54:57.396Z,5.62
2019-02-05T16:57:25.068Z,5.74
2019-02-05T16:59:52.421Z,5.79
2019-02-05T17:02:28.688Z,5.60
2019-02-05T17:04:49.075Z,5.70
2019-02-05T17:07:17.149Z,5.65
2019-02-05T17:09:45.830Z,5.79
2019-02-05T17:12:12.885Z,5.75
2019-02-05T17:14:40.845Z,5.88
2019-02-05T17:17:07.910Z,5.82
2019-02-05T17:19:35.756Z,5.71
2019-02-05T17:22:03.093Z,5.94
2019-02-05T17:24:30.671Z,5.99
2019-02-05T17:26:59.153Z,5.68
2019-02-05T17:29:26.503Z,5.63
2019-02-05T17:31:53.567Z,5.74
2019-02-05T17:34:20.926Z,5.67
2019-02-05T17:36:47.956Z,5.70
2019-02-05T17:39:16.040Z,5.67
2019-02-05T17:41:43.397Z,5.79
2019-02-05T17:44:10.424Z,5.85
2019-02-05T17:46:37.843Z,6.05
2019-02-05T17:49:04.923Z,5.87
2019-02-05T17:51:32.793Z,5.66
2019-02-05T17:54:01.084Z,5.65
2019-02-05T17:56:28.635Z,5.58
2019-02-05T17:58:55.677Z,5.37
2019-02-05T18:01:22.727Z,5.40
2019-02-05T18:03:49.747Z,5.71
2019-02-05T18:06:16.843Z,5.53
2019-02-05T18:08:44.846Z,5.71
2019-02-05T18:11:12.149Z,5.38
2019-02-05T18:13:39.900Z,5.35
2019-02-05T18:16:18.016Z,5.39
2019-02-05T18:18:45.370Z,5.40
2019-02-05T18:21:12.403Z,5.39
2019-02-05T18:23:40.498Z,5.33
2019-02-05T18:26:07.842Z,5.24
2019-02-05T18:28:35.271Z,5.27
2019-02-05T18:31:02.652Z,4.99
2019-02-05T18:33:29.769Z,5.13
2019-02-05T18:35:56.781Z,5.18
2019-02-05T18:38:23.827Z,4.95
2019-02-05T18:40:50.895Z,4.69
2019-02-05T18:43:18.319Z,4.69
2019-02-05T18:45:45.361Z,4.75
2019-02-05T18:48:12.409Z,4.83
2019-02-05T18:50:40.489Z,4.82
2019-02-05T18:53:07.533Z,4.94
2019-02-05T18:55:35.025Z,4.95
2019-02-05T18:58:09.474Z,4.83
2019-02-05T19:00:33.341Z,4.61
2019-02-05T19:03:00.718Z,4.88
2019-02-05T19:05:27.934Z,4.77
2019-02-05T19:07:57.156Z,4.91
2019-02-05T19:10:26.178Z,4.53
2019-02-05T19:12:53.204Z,4.27
2019-02-05T19:15:26.201Z,4.40
2019-02-05T19:17:53.224Z,4.55
2019-02-05T19:20:22.524Z,4.73
2019-02-05T19:22:49.599Z,4.35
2019-02-05T19:25:42.478Z,4.45
2019-02-05T19:28:11.563Z,4.28
2019-02-05T19:30:41.387Z,4.25
2019-02-05T19:33:08.414Z,4.26
2019-02-05T19:35:35.486Z,4.37
2019-02-05T19:38:02.531Z,4.24
2019-02-05T19:40:30.261Z,4.54
2019-02-05T19:42:57.607Z,4.22
2019-02-05T19:45:49.519Z,4.09
2019-02-05T19:48:27.327Z,4.23
2019-02-05T19:50:54.648Z,4.31
2019-02-05T19:53:21.955Z,4.02
2019-02-05T19:55:49.433Z,4.17
2019-02-05T19:58:16.458Z,4.14
2019-02-05T20:00:43.470Z,4.17
2019-02-05T20:03:11.202Z,4.25
2019-02-05T20:05:39.263Z,4.22
2019-02-05T20:08:06.287Z,4.28
2019-02-05T20:10:33.667Z,4.36
2019-02-05T20:13:00.796Z,4.48
2019-02-05T20:15:27.827Z,4.25
2019-02-05T20:17:54.875Z,4.37
2019-02-05T20:20:21.926Z,4.36
2019-02-05T20:22:49.249Z,4.58
2019-02-05T20:25:16.303Z,4.72
2019-02-05T20:27:43.348Z,4.34
2019-02-05T20:30:13.635Z,4.43
2019-02-05T20:32:41.359Z,4.43
2019-02-05T20:35:08.564Z,4.41
2019-02-05T20:37:35.960Z,4.56
2019-02-05T20:40:06.968Z,4.37
2019-02-05T20:42:34.414Z,4.21
2019-02-05T20:45:02.086Z,4.45
2019-02-05T20:47:29.244Z,4.47
2019-02-05T20:49:56.348Z,4.54
2019-02-05T20:52:24.285Z,4.44
2019-02-05T20:54:51.392Z,4.63
2019-02-05T20:57:18.495Z,4.61
2019-02-05T20:59:45.971Z,4.71
2019-02-05T21:02:15.478Z,4.69
2019-02-05T21:04:48.402Z,4.62
2019-02-05T21:07:11.517Z,4.73
2019-02-05T21:09:42.304Z,4.63
2019-02-05T21:12:09.775Z,4.19
2019-02-05T21:14:37.232Z,4.56
2019-02-05T21:17:04.303Z,4.44
2019-02-05T21:19:31.766Z,4.53
2019-02-05T21:22:00.396Z,4.53
2019-02-05T21:24:27.456Z,4.54
2019-02-05T21:26:54.547Z,4.63
2019-02-05T21:29:23.976Z,4.56
2019-02-05T21:31:51.018Z,4.69
2019-02-05T21:34:18.067Z,4.75
2019-02-05T21:36:45.515Z,4.98
2019-02-05T21:39:12.836Z,4.85
2019-02-05T21:41:40.586Z,4.84
2019-02-05T21:44:07.636Z,4.87
2019-02-05T21:46:35.913Z,5.03
2019-02-05T21:49:03.572Z,4.96
2019-02-05T21:51:40.205Z,5.34
2019-02-05T21:54:00.319Z,5.36
2019-02-05T21:56:27.679Z,5.27
2019-02-05T21:58:55.060Z,5.01
2019-02-05T22:01:22.494Z,5.19
2019-02-05T22:03:50.154Z,5.38
2019-02-05T22:06:17.193Z,5.37
2019-02-05T22:08:44.841Z,5.39
2019-02-05T22:11:12.317Z,5.36
2019-02-05T22:13:39.360Z,5.29
2019-02-05T22:16:06.870Z,5.33
2019-02-05T22:18:34.492Z,5.52
2019-02-05T22:21:02.579Z,5.55
2019-02-05T22:23:31.378Z,5.62
2019-02-05T22:25:58.418Z,5.75
2019-02-05T22:28:25.746Z,5.46
2019-02-05T22:30:53.214Z,5.44
2019-02-05T22:33:22.001Z,5.24
2019-02-05T22:35:49.039Z,5.37
2019-02-05T22:38:16.430Z,5.46
2019-02-05T22:40:43.466Z,5.58
2019-02-05T22:43:10.710Z,5.57
2019-02-05T22:45:41.002Z,5.40
2019-02-05T22:48:07.869Z,5.51
2019-02-05T22:50:34.978Z,5.52
2019-02-05T22:53:02.307Z,5.67
2019-02-05T22:55:29.386Z,5.28
2019-02-05T22:57:56.441Z,5.36
2019-02-05T23:00:39.909Z,4.98
2019-02-05T23:03:07.893Z,5.10
2019-02-05T23:06:15.716Z,4.96
2019-02-05T23:08:42.764Z,5.09
2019-02-05T23:12:07.337Z,5.16
2019-02-05T23:14:34.381Z,5.25
2019-02-05T23:17:02.319Z,5.28
2019-02-05T23:19:29.388Z,5.22
2019-02-05T23:21:56.749Z,5.27
2019-02-05T23:24:23.889Z,5.14
2019-02-05T23:26:51.482Z,5.15
2019-02-05T23:29:19.603Z,5.33
2019-02-05T23:31:46.957Z,5.25
2019-02-05T23:34:13.997Z,5.18
2019-02-05T23:36:41.358Z,5.30
2019-02-05T23:39:08.902Z,5.19
2019-02-05T23:41:36.850Z,5.16
2019-02-05T23:44:05.161Z,5.27
2019-02-05T23:46:32.520Z,5.02
2019-02-05T23:49:00.484Z,4.88
2019-02-05T23:51:27.838Z,4.89
2019-02-05T23:53:55.910Z,4.84
2019-02-05T23:56:25.834Z,4.95
2019-02-05T23:58:54.118Z,4.93
